Time,TemperatureF,DewpointF,PressureIn,WindDirection,WindDirectionDegrees,WindSpeedMPH,WindSpeedGustMPH,Humidity,HourlyPrecipIn,Conditions,Clouds,dailyrainin,SoftwareType,DateUTC
2013-05-20 00:10:00,60.0,60.0,30.06,West,266,0.0,0.0,98,0.00,,,0.00,weatherlink.com 1.10,2013-05-20 04:10:00,
2013-05-20 00:25:00,59.8,59.0,30.05,West,266,0.0,0.0,98,0.00,,,0.00,weatherlink.com 1.10,2013-05-20 04:25:00,
2013-05-20 00:40:00,59.7,59.0,30.05,NW,305,0.0,1.0,98,0.00,,,0.00,weatherlink.com 1.10,2013-05-20 04:40:00,
2013-05-20 00:55:00,59.5,59.0,30.05,NNE,29,2.0,3.0,98,0.00,,,0.00,weatherlink.com 1.10,2013-05-20 04:55:00,
2013-05-20 01:10:00,59.4,59.0,30.06,NNW,340,0.0,2.0,98,0.00,,,0.00,weatherlink.com 1.10,2013-05-20 05:10:00,
2013-05-20 01:25:00,59.2,59.0,30.05,NNW,340,0.0,0.0,98,0.00,,,0.00,weatherlink.com 1.10,2013-05-20 05:25:00,
2013-05-20 01:40:00,59.0,59.0,30.06,NNW,340,0.0,0.0,98,0.00,,,0.00,weatherlink.com 1.10,2013-05-20 05:40:00,
2013-05-20 01:55:00,58.9,58.0,30.05,West,264,0.0,0.0,98,0.00,,,0.00,weatherlink.com 1.10,2013-05-20 05:55:00,
2013-05-20 02:11:00,58.9,58.0,30.05,SW,226,1.0,1.0,98,0.00,,,0.00,weatherlink.com 1.10,2013-05-20 06:11:00,
2013-05-20 02:26:00,59.2,59.0,30.05,SW,215,0.0,1.0,98,0.00,,,0.00,weatherlink.com 1.10,2013-05-20 06:26:00,
2013-05-20 02:41:00,59.0,59.0,30.05,SW,215,0.0,0.0,98,0.00,,,0.00,weatherlink.com 1.10,2013-05-20 06:41:00,
2013-05-20 02:56:00,58.8,58.0,30.05,SW,215,0.0,0.0,98,0.00,,,0.00,weatherlink.com 1.10,2013-05-20 06:56:00,
2013-05-20 03:11:00,58.9,58.0,30.05,WNW,300,0.0,1.0,98,0.00,,,0.00,weatherlink.com 1.10,2013-05-20 07:11:00,
2013-05-20 03:26:00,58.7,58.0,30.05,SW,217,0.0,0.0,98,0.00,,,0.00,weatherlink.com 1.10,2013-05-20 07:26:00,
2013-05-20 03:41:00,59.1,59.0,30.06,NW,316,0.0,2.0,98,0.00,,,0.00,weatherlink.com 1.10,2013-05-20 07:41:00,
2013-05-20 03:56:00,59.2,59.0,30.05,SSW,204,0.0,1.0,98,0.00,,,0.00,weatherlink.com 1.10,2013-05-20 07:56:00,
2013-05-20 04:11:00,59.3,59.0,30.05,SW,236,0.0,2.0,98,0.00,,,0.00,weatherlink.com 1.10,2013-05-20 08:11:00,
2013-05-20 04:27:00,59.5,59.0,30.05,SE,138,0.0,1.0,99,0.00,,,0.00,weatherlink.com 1.10,2013-05-20 08:27:00,
2013-05-20 04:41:00,59.7,60.0,30.05,SSE,162,3.0,3.0,99,0.00,,,0.00,weatherlink.com 1.10,2013-05-20 08:41:00,
2013-05-20 04:56:00,60.7,61.0,30.06,SSE,155,2.0,3.0,99,0.00,,,0.00,weatherlink.com 1.10,2013-05-20 08:56:00,
2013-05-20 05:11:00,61.1,61.0,30.05,SW,217,0.0,4.0,99,0.00,,,0.00,weatherlink.com 1.10,2013-05-20 09:11:00,
2013-05-20 05:26:00,61.1,61.0,30.05,SSE,158,0.0,4.0,99,0.00,,,0.00,weatherlink.com 1.10,2013-05-20 09:26:00,
2013-05-20 05:41:00,61.2,61.0,30.05,SW,226,1.0,1.0,99,0.00,,,0.00,weatherlink.com 1.10,2013-05-20 09:41:00,
2013-05-20 05:56:00,61.3,61.0,30.06,SSW,200,0.0,4.0,99,0.00,,,0.00,weatherlink.com 1.10,2013-05-20 09:56:00,
2013-05-20 06:11:00,61.5,61.0,30.07,NNE,28,2.0,3.0,99,0.00,,,0.00,weatherlink.com 1.10,2013-05-20 10:11:00,
2013-05-20 06:26:00,61.4,61.0,30.06,NNE,23,0.0,1.0,99,0.00,,,0.00,weatherlink.com 1.10,2013-05-20 10:26:00,
2013-05-20 06:41:00,61.4,61.0,30.08,NNW,340,1.0,3.0,99,0.00,,,0.00,weatherlink.com 1.10,2013-05-20 10:41:00,
2013-05-20 06:56:00,61.4,61.0,30.08,NNW,335,2.0,5.0,99,0.00,,,0.00,weatherlink.com 1.10,2013-05-20 10:56:00,
2013-05-20 07:11:00,61.6,61.0,30.09,NNW,346,2.0,3.0,99,0.00,,,0.00,weatherlink.com 1.10,2013-05-20 11:11:00,
2013-05-20 07:26:00,61.3,61.0,30.09,NNW,340,1.0,3.0,98,0.00,,,0.00,weatherlink.com 1.10,2013-05-20 11:26:00,
2013-05-20 07:41:00,61.5,61.0,30.09,NW,323,0.0,2.0,98,0.00,,,0.00,weatherlink.com 1.10,2013-05-20 11:41:00,
2013-05-20 07:56:00,61.9,61.0,30.09,NW,321,0.0,1.0,98,0.00,,,0.00,weatherlink.com 1.10,2013-05-20 11:56:00,
2013-05-20 08:11:00,62.4,62.0,30.09,NW,321,0.0,1.0,98,0.00,,,0.00,weatherlink.com 1.10,2013-05-20 12:11:00,
2013-05-20 08:26:00,63.2,62.0,30.10,NNE,27,0.0,2.0,97,0.00,,,0.00,weatherlink.com 1.10,2013-05-20 12:26:00,
2013-05-20 08:41:00,63.9,63.0,30.10,WNW,302,0.0,1.0,97,0.00,,,0.00,weatherlink.com 1.10,2013-05-20 12:41:00,
2013-05-20 08:56:00,64.1,62.0,30.11,NW,323,1.0,4.0,94,0.00,,,0.00,weatherlink.com 1.10,2013-05-20 12:56:00,
2013-05-20 09:11:00,64.2,63.0,30.11,NNW,330,0.0,3.0,94,0.00,,,0.00,weatherlink.com 1.10,2013-05-20 13:11:00,
2013-05-20 09:26:00,64.7,63.0,30.11,West,266,0.0,2.0,93,0.00,,,0.00,weatherlink.com 1.10,2013-05-20 13:26:00,
2013-05-20 09:41:00,65.8,64.0,30.12,NNW,332,0.0,2.0,92,0.00,,,0.00,weatherlink.com 1.10,2013-05-20 13:41:00,
2013-05-20 09:56:00,66.4,64.0,30.12,NNW,343,2.0,4.0,90,0.00,,,0.00,weatherlink.com 1.10,2013-05-20 13:56:00,
2013-05-20 10:11:00,68.2,65.0,30.12,NNW,333,1.0,4.0,88,0.00,,,0.00,weatherlink.com 1.10,2013-05-20 14:11:00,
2013-05-20 10:26:00,68.6,64.0,30.11,WNW,291,3.0,7.0,86,0.00,,,0.00,weatherlink.com 1.10,2013-05-20 14:26:00,
2013-05-20 10:41:00,69.9,65.0,30.11,WSW,250,2.0,4.0,85,0.00,,,0.00,weatherlink.com 1.10,2013-05-20 14:41:00,
2013-05-20 10:56:00,70.5,66.0,30.11,NNE,29,1.0,4.0,85,0.00,,,0.00,weatherlink.com 1.10,2013-05-20 14:56:00,
2013-05-20 11:11:00,72.0,66.0,30.11,NW,315,0.0,7.0,82,0.00,,,0.00,weatherlink.com 1.10,2013-05-20 15:11:00,
2013-05-20 11:27:00,71.9,66.0,30.11,NNW,345,1.0,7.0,81,0.00,,,0.00,weatherlink.com 1.10,2013-05-20 15:27:00,
2013-05-20 11:42:00,72.8,66.0,30.10,NNW,330,5.0,6.0,80,0.00,,,0.00,weatherlink.com 1.10,2013-05-20 15:42:00,
2013-05-20 11:57:00,74.7,67.0,30.10,NW,316,0.0,6.0,77,0.00,,,0.00,weatherlink.com 1.10,2013-05-20 15:57:00,
2013-05-20 12:13:00,76.2,67.0,30.10,WNW,300,1.0,6.0,72,0.00,,,0.00,weatherlink.com 1.10,2013-05-20 16:13:00,
2013-05-20 12:27:00,76.9,65.0,30.09,North,355,9.0,12.0,67,0.00,,,0.00,weatherlink.com 1.10,2013-05-20 16:27:00,
2013-05-20 12:42:00,76.4,65.0,30.09,NNW,335,10.0,12.0,68,0.00,,,0.00,weatherlink.com 1.10,2013-05-20 16:42:00,
2013-05-20 12:57:00,76.9,66.0,30.08,West,276,1.0,12.0,68,0.00,,,0.00,weatherlink.com 1.10,2013-05-20 16:57:00,
2013-05-20 13:12:00,77.5,65.0,30.08,NNE,17,1.0,12.0,66,0.00,,,0.00,weatherlink.com 1.10,2013-05-20 17:12:00,
2013-05-20 13:27:00,77.9,64.0,30.07,NNW,337,10.0,11.0,63,0.00,,,0.00,weatherlink.com 1.10,2013-05-20 17:27:00,
2013-05-20 13:42:00,78.6,64.0,30.07,NE,44,4.0,14.0,62,0.00,,,0.00,weatherlink.com 1.10,2013-05-20 17:42:00,
2013-05-20 13:57:00,78.8,65.0,30.06,North,11,13.0,13.0,62,0.00,,,0.00,weatherlink.com 1.10,2013-05-20 17:57:00,
2013-05-20 14:12:00,79.6,64.0,30.06,WNW,303,3.0,11.0,59,0.00,,,0.00,weatherlink.com 1.10,2013-05-20 18:12:00,
2013-05-20 14:27:00,80.1,64.0,30.06,NNW,348,10.0,11.0,59,0.00,,,0.00,weatherlink.com 1.10,2013-05-20 18:27:00,
2013-05-20 14:42:00,80.0,63.0,30.06,NNW,332,5.0,17.0,57,0.00,,,0.00,weatherlink.com 1.10,2013-05-20 18:42:00,
2013-05-20 14:57:00,80.3,64.0,30.05,West,271,0.0,11.0,58,0.00,,,0.00,weatherlink.com 1.10,2013-05-20 18:57:00,
2013-05-20 15:12:00,80.6,64.0,30.04,NNE,26,3.0,12.0,57,0.00,,,0.00,weatherlink.com 1.10,2013-05-20 19:12:00,
2013-05-20 15:27:00,80.6,65.0,30.03,NNE,18,6.0,13.0,59,0.00,,,0.00,weatherlink.com 1.10,2013-05-20 19:27:00,
2013-05-20 15:42:00,80.4,65.0,30.03,NNE,28,6.0,15.0,59,0.00,,,0.00,weatherlink.com 1.10,2013-05-20 19:42:00,
2013-05-20 15:57:00,80.8,66.0,30.02,NNW,346,4.0,15.0,60,0.00,,,0.00,weatherlink.com 1.10,2013-05-20 19:57:00,
2013-05-20 16:12:00,82.1,65.0,30.02,NW,314,3.0,11.0,57,0.00,,,0.00,weatherlink.com 1.10,2013-05-20 20:12:00,
2013-05-20 16:27:00,80.7,65.0,30.03,NNW,344,4.0,12.0,60,0.00,,,0.00,weatherlink.com 1.10,2013-05-20 20:27:00,
2013-05-20 16:42:00,79.9,65.0,30.02,North,8,4.0,10.0,61,0.00,,,0.00,weatherlink.com 1.10,2013-05-20 20:42:00,
2013-05-20 16:57:00,81.4,66.0,30.02,NE,36,4.0,5.0,59,0.00,,,0.00,weatherlink.com 1.10,2013-05-20 20:57:00,
2013-05-20 17:12:00,82.1,63.0,30.02,ENE,68,3.0,9.0,53,0.00,,,0.00,weatherlink.com 1.10,2013-05-20 21:12:00,
2013-05-20 17:27:00,83.1,63.0,30.02,ENE,76,4.0,8.0,51,0.00,,,0.00,weatherlink.com 1.10,2013-05-20 21:27:00,
2013-05-20 17:42:00,84.4,65.0,30.02,NNW,331,2.0,2.0,53,0.00,,,0.00,weatherlink.com 1.10,2013-05-20 21:42:00,
2013-05-20 17:57:00,82.0,68.0,30.02,SSE,152,10.0,12.0,63,0.00,,,0.00,weatherlink.com 1.10,2013-05-20 21:57:00,
2013-05-20 18:12:00,78.3,67.0,30.02,SSE,160,7.0,15.0,69,0.00,,,0.00,weatherlink.com 1.10,2013-05-20 22:12:00,
2013-05-20 18:27:00,77.7,68.0,30.02,SSE,156,10.0,13.0,71,0.00,,,0.00,weatherlink.com 1.10,2013-05-20 22:27:00,
2013-05-20 18:42:00,78.0,68.0,30.01,SSW,200,5.0,13.0,71,0.00,,,0.00,weatherlink.com 1.10,2013-05-20 22:42:00,
2013-05-20 18:57:00,77.9,68.0,30.00,South,184,5.0,12.0,71,0.00,,,0.00,weatherlink.com 1.10,2013-05-20 22:57:00,
2013-05-20 19:12:00,77.5,67.0,30.00,SSE,151,9.0,13.0,70,0.00,,,0.00,weatherlink.com 1.10,2013-05-20 23:12:00,
2013-05-20 19:27:00,77.3,67.0,30.00,SSE,151,4.0,11.0,71,0.00,,,0.00,weatherlink.com 1.10,2013-05-20 23:27:00,
2013-05-20 19:42:00,76.3,67.0,30.00,South,179,3.0,12.0,73,0.00,,,0.00,weatherlink.com 1.10,2013-05-20 23:42:00,
2013-05-20 19:58:00,75.0,67.0,30.00,SSE,154,3.0,10.0,76,0.00,,,0.00,weatherlink.com 1.10,2013-05-20 23:58:00,
2013-05-20 20:12:00,74.3,67.0,30.00,SSE,166,3.0,7.0,77,0.00,,,0.00,weatherlink.com 1.10,2013-05-21 00:12:00,
2013-05-20 20:27:00,73.5,67.0,30.01,SSE,154,5.0,9.0,79,0.00,,,0.00,weatherlink.com 1.10,2013-05-21 00:27:00,
2013-05-20 20:42:00,72.7,66.0,30.01,ESE,119,5.0,7.0,79,0.00,,,0.00,weatherlink.com 1.10,2013-05-21 00:42:00,
2013-05-20 20:57:00,72.0,66.0,30.01,SSE,160,6.0,7.0,80,0.00,,,0.00,weatherlink.com 1.10,2013-05-21 00:57:00,
2013-05-20 21:12:00,71.0,65.0,30.01,SSW,207,3.0,6.0,82,0.00,,,0.00,weatherlink.com 1.10,2013-05-21 01:12:00,
2013-05-20 21:27:00,70.2,65.0,30.01,SSE,153,2.0,5.0,83,0.00,,,0.00,weatherlink.com 1.10,2013-05-21 01:27:00,
2013-05-20 21:42:00,69.5,65.0,30.01,SSW,198,4.0,7.0,85,0.00,,,0.00,weatherlink.com 1.10,2013-05-21 01:42:00,
2013-05-20 21:57:00,69.4,64.0,30.02,SSE,163,4.0,8.0,84,0.00,,,0.00,weatherlink.com 1.10,2013-05-21 01:57:00,
2013-05-20 22:13:00,69.3,65.0,30.02,SSE,162,2.0,4.0,85,0.00,,,0.00,weatherlink.com 1.10,2013-05-21 02:13:00,
2013-05-20 22:28:00,69.0,64.0,30.03,South,191,2.0,4.0,85,0.00,,,0.00,weatherlink.com 1.10,2013-05-21 02:28:00,
2013-05-20 22:42:00,68.5,64.0,30.03,SSE,156,3.0,3.0,86,0.00,,,0.00,weatherlink.com 1.10,2013-05-21 02:42:00,
2013-05-20 22:58:00,68.0,64.0,30.03,SSE,159,1.0,4.0,87,0.00,,,0.00,weatherlink.com 1.10,2013-05-21 02:58:00,
2013-05-20 23:13:00,67.5,64.0,30.02,SE,143,3.0,4.0,88,0.00,,,0.00,weatherlink.com 1.10,2013-05-21 03:13:00,
2013-05-20 23:28:00,66.7,64.0,30.02,SE,144,1.0,4.0,90,0.00,,,0.00,weatherlink.com 1.10,2013-05-21 03:28:00,
2013-05-20 23:43:00,65.7,63.0,30.02,SSW,193,2.0,4.0,91,0.00,,,0.00,weatherlink.com 1.10,2013-05-21 03:43:00,
2013-05-20 23:58:00,65.0,63.0,30.02,SSE,158,2.0,5.0,93,0.00,,,0.00,weatherlink.com 1.10,2013-05-21 03:58:00,